createdAt,value
2017-04-19T00:00:16.224Z,49.14
2017-04-19T00:00:44.960Z,49.15
2017-04-19T00:01:50.686Z,49.16
2017-04-19T00:02:59.208Z,49.16
2017-04-19T00:03:50.867Z,49.17
2017-04-19T00:04:54.403Z,49.16
2017-04-19T00:05:52.379Z,49.17
2017-04-19T00:06:45.861Z,49.17
2017-04-19T00:08:04.286Z,49.19
2017-04-19T00:08:58.960Z,49.16
2017-04-19T00:09:49.756Z,49.15
2017-04-19T00:10:46.539Z,49.16
2017-04-19T00:11:59.000Z,49.17
2017-04-19T00:12:50.991Z,49.17
2017-04-19T00:13:53.538Z,49.18
2017-04-19T00:14:53.266Z,49.17
2017-04-19T00:16:05.268Z,49.17
2017-04-19T00:16:54.969Z,49.18
2017-04-19T00:17:45.731Z,49.18
2017-04-19T00:18:46.257Z,49.18
2017-04-19T00:19:55.978Z,49.19
2017-04-19T00:20:45.827Z,49.17
2017-04-19T00:21:46.754Z,49.15
2017-04-19T00:22:47.642Z,49.17
2017-04-19T00:23:46.005Z,49.18
2017-04-19T00:24:54.648Z,49.19
2017-04-19T00:25:46.725Z,49.21
2017-04-19T00:26:54.898Z,49.21
2017-04-19T00:27:57.317Z,49.19
2017-04-19T00:28:45.084Z,49.19
2017-04-19T00:29:45.706Z,49.19
2017-04-19T00:30:45.889Z,49.19
2017-04-19T00:31:46.702Z,49.17
2017-04-19T00:32:53.686Z,49.18
2017-04-19T00:33:58.656Z,49.19
2017-04-19T00:34:49.243Z,49.18
2017-04-19T00:35:56.566Z,49.18
2017-04-19T00:36:55.333Z,49.19
2017-04-19T00:37:59.328Z,49.21
2017-04-19T00:38:44.970Z,49.22
2017-04-19T00:39:46.326Z,49.23
2017-04-19T00:40:45.889Z,49.22
2017-04-19T00:41:46.508Z,49.18
2017-04-19T00:42:46.396Z,49.20
2017-04-19T00:43:53.477Z,49.21
2017-04-19T00:44:46.589Z,49.17
2017-04-19T00:45:46.452Z,49.21
2017-04-19T00:46:50.961Z,49.21
2017-04-19T00:47:49.615Z,49.11
2017-04-19T00:48:49.216Z,48.48
2017-04-19T00:49:54.409Z,49.02
2017-04-19T00:50:44.655Z,49.12
2017-04-19T00:51:45.912Z,49.14
2017-04-19T00:52:46.986Z,49.16
2017-04-19T00:53:45.772Z,49.19
2017-04-19T00:54:55.827Z,49.19
2017-04-19T00:56:00.607Z,49.21
2017-04-19T00:56:54.384Z,49.18
2017-04-19T00:57:55.325Z,49.20
2017-04-19T00:58:55.346Z,49.10
2017-04-19T00:59:51.464Z,48.41
2017-04-19T01:00:46.750Z,48.22
2017-04-19T01:01:56.578Z,48.15
2017-04-19T01:03:07.700Z,48.87
2017-04-19T01:04:17.208Z,49.02
2017-04-19T01:04:46.042Z,49.11
2017-04-19T01:05:59.889Z,49.14
2017-04-19T01:06:54.952Z,49.16
2017-04-19T01:07:45.833Z,49.14
2017-04-19T01:08:51.903Z,49.15
2017-04-19T01:10:01.084Z,49.17
2017-04-19T01:10:45.411Z,49.18
2017-04-19T01:11:49.532Z,49.19
2017-04-19T01:12:59.487Z,49.18
2017-04-19T01:14:01.450Z,49.18
2017-04-19T01:15:06.985Z,49.20
2017-04-19T01:15:55.295Z,49.22
2017-04-19T01:18:02.900Z,49.22
2017-04-19T01:18:58.929Z,49.21
2017-04-19T01:20:08.431Z,49.21
2017-04-19T01:20:51.929Z,49.20
2017-04-19T01:21:56.991Z,49.20
2017-04-19T01:22:57.104Z,49.21
2017-04-19T01:23:54.046Z,49.20
2017-04-19T01:24:45.575Z,49.21
2017-04-19T01:25:52.764Z,49.21
2017-04-19T01:27:01.089Z,49.21
2017-04-19T01:27:57.463Z,49.23
2017-04-19T01:28:56.253Z,49.22
2017-04-19T01:29:50.901Z,49.21
2017-04-19T01:30:51.740Z,49.22
2017-04-19T01:32:20.557Z,49.22
2017-04-19T01:33:23.692Z,49.23
2017-04-19T01:34:01.886Z,49.23
2017-04-19T01:34:56.367Z,49.24
2017-04-19T01:36:07.209Z,49.23
2017-04-19T01:36:57.819Z,49.24
2017-04-19T01:37:52.760Z,49.24
2017-04-19T01:39:04.615Z,49.23
2017-04-19T01:40:03.551Z,49.25
2017-04-19T01:40:59.407Z,49.23
2017-04-19T01:41:50.169Z,49.24
2017-04-19T01:42:50.646Z,49.24
2017-04-19T01:43:57.043Z,49.22
2017-04-19T01:45:03.848Z,49.23
2017-04-19T01:46:19.396Z,49.23
2017-04-19T01:46:58.384Z,49.25
2017-04-19T01:48:00.055Z,49.24
2017-04-19T01:48:49.514Z,49.26
2017-04-19T01:50:00.944Z,49.25
2017-04-19T01:51:15.664Z,49.27
2017-04-19T01:52:00.366Z,49.27
2017-04-19T01:53:01.330Z,49.26
2017-04-19T01:54:19.005Z,49.26
2017-04-19T01:54:57.826Z,49.25
2017-04-19T01:55:57.294Z,49.27
2017-04-19T01:57:16.715Z,49.25
2017-04-19T01:57:50.715Z,49.25
2017-04-19T01:58:45.240Z,49.26
2017-04-19T02:00:02.819Z,49.25
2017-04-19T02:00:57.105Z,49.24
2017-04-19T02:01:57.746Z,49.22
2017-04-19T02:02:57.454Z,49.24
2017-04-19T02:03:57.216Z,49.26
2017-04-19T02:05:00.981Z,49.27
2017-04-19T02:06:04.445Z,49.25
2017-04-19T02:06:58.122Z,49.25
2017-04-19T02:08:43.760Z,49.24
2017-04-19T02:09:00.355Z,49.26
2017-04-19T02:10:59.216Z,49.28
2017-04-19T02:11:45.576Z,49.26
2017-04-19T02:12:57.227Z,49.27
2017-04-19T02:14:03.047Z,49.29
2017-04-19T02:14:52.965Z,49.26
2017-04-19T02:16:01.614Z,49.26
2017-04-19T02:17:06.790Z,49.24
2017-04-19T02:17:51.117Z,49.26
2017-04-19T02:18:50.563Z,49.24
2017-04-19T02:19:45.944Z,49.25
2017-04-19T02:20:51.972Z,49.29
2017-04-19T02:22:00.295Z,49.31
2017-04-19T02:22:55.808Z,49.29
2017-04-19T02:24:00.702Z,49.17
2017-04-19T02:25:00.752Z,48.55
2017-04-19T02:25:50.728Z,48.32
2017-04-19T02:27:01.207Z,48.25
2017-04-19T02:28:06.504Z,48.20
2017-04-19T02:28:50.905Z,48.25
2017-04-19T02:29:50.357Z,48.15
2017-04-19T02:30:57.183Z,48.12
2017-04-19T02:31:49.523Z,48.11
2017-04-19T02:33:05.863Z,48.22
2017-04-19T02:34:00.005Z,48.85
2017-04-19T02:34:58.791Z,49.04
2017-04-19T02:35:58.598Z,49.13
2017-04-19T02:36:59.929Z,49.18
2017-04-19T02:37:54.977Z,49.22
2017-04-19T02:38:49.706Z,49.23
2017-04-19T02:39:54.618Z,49.26
2017-04-19T02:40:54.968Z,49.23
2017-04-19T02:41:45.899Z,49.28
2017-04-19T02:42:46.566Z,49.28
2017-04-19T02:43:47.801Z,49.29
2017-04-19T02:45:56.106Z,49.28
2017-04-19T02:47:00.079Z,49.29
2017-04-19T02:47:44.357Z,49.30
2017-04-19T02:49:12.114Z,49.27
2017-04-19T02:50:22.954Z,49.29
2017-04-19T02:51:17.321Z,49.28
2017-04-19T02:51:55.768Z,49.30
2017-04-19T02:52:50.499Z,49.29
2017-04-19T02:53:57.442Z,49.16
2017-04-19T02:54:56.110Z,48.51
2017-04-19T02:55:50.788Z,48.29
2017-04-19T02:56:51.396Z,48.28
2017-04-19T02:58:00.571Z,48.21
2017-04-19T02:58:54.637Z,48.18
2017-04-19T03:00:16.241Z,48.17
2017-04-19T03:00:55.337Z,48.13
2017-04-19T03:01:57.621Z,48.12
2017-04-19T03:02:55.904Z,48.11
2017-04-19T03:03:46.729Z,48.13
2017-04-19T03:05:46.099Z,48.92
2017-04-19T03:06:50.818Z,49.07
2017-04-19T03:07:47.184Z,49.15
2017-04-19T03:08:57.267Z,49.22
2017-04-19T03:09:55.551Z,49.22
2017-04-19T03:10:50.342Z,49.24
2017-04-19T03:11:59.895Z,49.25
2017-04-19T03:12:46.839Z,49.26
2017-04-19T03:13:50.098Z,49.26
2017-04-19T03:15:07.206Z,49.31
2017-04-19T03:15:46.383Z,49.28
2017-04-19T03:17:04.490Z,49.28
2017-04-19T03:17:54.442Z,49.37
2017-04-19T03:18:46.540Z,48.49
2017-04-19T03:19:51.349Z,48.31
2017-04-19T03:20:51.271Z,48.25
2017-04-19T03:21:47.812Z,48.25
2017-04-19T03:22:51.009Z,48.94
2017-04-19T03:23:44.539Z,49.10
2017-04-19T03:25:05.985Z,49.19
2017-04-19T03:25:55.155Z,49.23
2017-04-19T03:26:50.524Z,49.24
2017-04-19T03:27:57.928Z,49.26
2017-04-19T03:28:51.956Z,49.28
2017-04-19T03:29:50.704Z,49.28
2017-04-19T03:30:56.781Z,49.30
2017-04-19T03:31:46.629Z,49.30
2017-04-19T03:32:44.061Z,49.28
2017-04-19T03:33:54.058Z,49.29
2017-04-19T03:34:52.973Z,49.31
2017-04-19T03:35:44.979Z,49.16
2017-04-19T03:36:49.422Z,48.45
2017-04-19T03:37:45.869Z,48.35
2017-04-19T03:38:51.537Z,48.28
2017-04-19T03:39:46.219Z,48.24
2017-04-19T03:41:00.472Z,48.21
2017-04-19T03:41:49.389Z,48.21
2017-04-19T03:42:51.585Z,48.98
2017-04-19T03:43:50.801Z,49.12
2017-04-19T03:44:53.034Z,49.19
2017-04-19T03:45:54.392Z,49.22
2017-04-19T03:46:44.815Z,49.28
2017-04-19T03:47:54.378Z,49.28
2017-04-19T03:48:45.753Z,49.29
2017-04-19T03:49:58.639Z,49.28
2017-04-19T03:50:59.257Z,49.30
2017-04-19T03:51:46.030Z,49.31
2017-04-19T03:52:45.854Z,49.31
2017-04-19T03:53:56.556Z,49.29
2017-04-19T03:54:51.842Z,49.31
2017-04-19T03:55:55.284Z,49.33
2017-04-19T03:57:24.105Z,49.33
2017-04-19T03:57:57.737Z,49.33
2017-04-19T03:58:47.754Z,49.32
2017-04-19T03:59:50.744Z,49.32
2017-04-19T04:00:47.178Z,49.31
2017-04-19T04:01:50.450Z,49.34
2017-04-19T04:02:55.818Z,49.35
2017-04-19T04:03:50.781Z,49.20
2017-04-19T04:04:46.228Z,48.55
2017-04-19T04:05:44.450Z,48.37
2017-04-19T04:06:57.282Z,48.27
2017-04-19T04:07:53.410Z,48.22
2017-04-19T04:08:54.593Z,48.57
2017-04-19T04:09:57.186Z,48.97
2017-04-19T04:10:57.114Z,49.14
2017-04-19T04:11:46.254Z,49.20
2017-04-19T04:12:57.163Z,49.24
2017-04-19T04:13:58.713Z,49.28
2017-04-19T04:14:54.620Z,49.29
2017-04-19T04:15:45.750Z,49.30
2017-04-19T04:16:46.657Z,49.31
2017-04-19T04:17:45.954Z,49.30
2017-04-19T04:18:52.985Z,49.31
2017-04-19T04:19:52.075Z,49.31
2017-04-19T04:20:43.849Z,49.30
2017-04-19T04:21:55.812Z,49.32
2017-04-19T04:22:46.296Z,49.31
2017-04-19T04:23:53.123Z,49.28
2017-04-19T04:24:57.760Z,49.33
2017-04-19T04:27:46.007Z,49.31
2017-04-19T04:28:02.472Z,49.32
2017-04-19T04:28:48.914Z,49.34
2017-04-19T04:29:54.307Z,49.32
2017-04-19T04:31:03.846Z,48.57
2017-04-19T04:32:00.024Z,48.39
2017-04-19T04:32:55.297Z,48.30
2017-04-19T04:33:50.831Z,48.25
2017-04-19T04:34:46.535Z,48.21
2017-04-19T04:35:51.173Z,48.97
2017-04-19T04:36:50.498Z,49.11
2017-04-19T04:37:51.508Z,49.19
2017-04-19T04:39:04.858Z,49.24
2017-04-19T04:39:59.232Z,49.29
2017-04-19T04:40:54.335Z,49.31
2017-04-19T04:41:50.830Z,49.30
2017-04-19T04:43:03.552Z,49.31
2017-04-19T04:43:44.988Z,49.32
2017-04-19T04:45:18.152Z,49.35
2017-04-19T04:45:47.036Z,49.35
2017-04-19T04:46:55.261Z,49.33
2017-04-19T04:47:50.800Z,49.24
2017-04-19T04:48:46.599Z,48.58
2017-04-19T04:49:45.849Z,48.42
2017-04-19T04:50:46.649Z,48.60
2017-04-19T04:51:49.789Z,48.95
2017-04-19T04:52:52.852Z,48.42
2017-04-19T04:54:02.926Z,48.31
2017-04-19T04:54:59.930Z,48.25
2017-04-19T04:55:54.660Z,48.23
2017-04-19T04:56:51.118Z,48.21
2017-04-19T04:57:57.165Z,48.20
2017-04-19T04:58:50.931Z,48.20
2017-04-19T04:59:59.913Z,48.19
2017-04-19T05:01:03.287Z,48.22
2017-04-19T05:01:40.747Z,48.98
2017-04-19T05:02:56.076Z,49.14
2017-04-19T05:03:57.746Z,49.20
2017-04-19T05:04:54.860Z,49.26
2017-04-19T05:05:54.098Z,49.28
2017-04-19T05:06:39.933Z,49.31
2017-04-19T05:07:45.899Z,49.31
2017-04-19T05:08:45.913Z,49.34
2017-04-19T05:09:46.027Z,49.34
2017-04-19T05:10:45.853Z,49.35
2017-04-19T05:11:46.705Z,49.34
2017-04-19T05:12:46.543Z,49.36
2017-04-19T05:13:55.540Z,49.35
2017-04-19T05:14:59.494Z,49.35
2017-04-19T05:15:53.866Z,49.36
2017-04-19T05:17:00.305Z,49.36
2017-04-19T05:17:55.635Z,49.35
2017-04-19T05:18:46.088Z,49.36
2017-04-19T05:19:57.160Z,49.37
2017-04-19T05:20:45.890Z,49.38
2017-04-19T05:22:01.291Z,49.37
2017-04-19T05:23:00.860Z,49.37
2017-04-19T05:23:45.745Z,49.37
2017-04-19T05:24:51.453Z,49.37
2017-04-19T05:25:44.909Z,49.37
2017-04-19T05:26:59.051Z,49.39
2017-04-19T05:27:49.177Z,49.38
2017-04-19T05:28:54.618Z,49.38
2017-04-19T05:30:00.443Z,49.37
2017-04-19T05:30:55.414Z,49.37
2017-04-19T05:31:45.787Z,49.37
2017-04-19T05:32:51.693Z,49.35
2017-04-19T05:33:55.895Z,49.37
2017-04-19T05:34:51.150Z,49.38
2017-04-19T05:35:39.878Z,49.39
2017-04-19T05:36:56.177Z,49.38
2017-04-19T05:37:51.061Z,49.37
2017-04-19T05:38:48.878Z,49.40
2017-04-19T05:40:04.753Z,49.40
2017-04-19T05:40:59.435Z,49.38
2017-04-19T05:41:44.605Z,49.39
2017-04-19T05:42:47.651Z,49.39
2017-04-19T05:43:45.907Z,49.39
2017-04-19T05:44:56.976Z,49.41
2017-04-19T05:45:45.725Z,49.42
2017-04-19T05:46:34.704Z,49.42
2017-04-19T05:47:45.378Z,49.41
2017-04-19T05:48:53.036Z,49.43
2017-04-19T05:49:53.050Z,49.42
2017-04-19T05:50:49.898Z,49.40
2017-04-19T05:51:59.950Z,49.43
2017-04-19T05:52:49.175Z,49.41
2017-04-19T05:53:46.717Z,49.41
2017-04-19T05:54:46.207Z,49.43
2017-04-19T05:55:50.986Z,49.62
2017-04-19T05:56:50.536Z,49.59
2017-04-19T05:57:51.874Z,49.57
2017-04-19T05:59:08.001Z,49.65
2017-04-19T06:00:00.751Z,50.10
2017-04-19T06:00:49.098Z,50.27
2017-04-19T06:01:58.552Z,50.33
2017-04-19T06:02:55.168Z,50.23
2017-04-19T06:03:45.842Z,50.30
2017-04-19T06:05:02.881Z,50.27
2017-04-19T06:05:56.881Z,50.17
2017-04-19T06:06:45.717Z,50.05
2017-04-19T06:08:00.828Z,49.96
2017-04-19T06:08:45.491Z,50.06
2017-04-19T06:09:46.368Z,50.08
2017-04-19T06:10:52.910Z,49.69
2017-04-19T06:11:54.153Z,49.24
2017-04-19T06:12:51.764Z,48.58
2017-04-19T06:13:54.374Z,48.40
2017-04-19T06:14:54.630Z,48.31
2017-04-19T06:15:50.674Z,48.29
2017-04-19T06:16:55.957Z,48.48
2017-04-19T06:17:50.461Z,48.42
2017-04-19T06:18:49.177Z,48.62
2017-04-19T06:19:46.011Z,48.90
2017-04-19T06:20:55.650Z,48.99
2017-04-19T06:21:52.001Z,48.90
2017-04-19T06:22:58.655Z,48.87
2017-04-19T06:23:54.171Z,48.82
2017-04-19T06:24:44.560Z,48.74
2017-04-19T06:25:50.027Z,48.61
2017-04-19T06:26:56.718Z,48.50
2017-04-19T06:27:51.183Z,48.32
2017-04-19T06:28:35.998Z,48.27
2017-04-19T06:29:59.422Z,48.18
2017-04-19T06:30:46.475Z,48.14
2017-04-19T06:31:45.903Z,48.05
2017-04-19T06:32:54.156Z,48.02
2017-04-19T06:33:55.273Z,47.92
2017-04-19T06:34:48.906Z,47.88
2017-04-19T06:35:49.128Z,47.87
2017-04-19T06:36:49.916Z,47.80
2017-04-19T06:37:54.190Z,47.80
2017-04-19T06:38:55.643Z,47.81
2017-04-19T06:39:51.470Z,47.77
2017-04-19T06:40:46.232Z,47.71
2017-04-19T06:41:46.263Z,47.74
2017-04-19T06:42:51.219Z,47.72
2017-04-19T06:44:00.663Z,47.73
2017-04-19T06:44:44.610Z,47.70
2017-04-19T06:45:52.612Z,47.76
2017-04-19T06:46:55.749Z,47.68
2017-04-19T06:47:46.276Z,47.70
2017-04-19T06:48:45.827Z,47.53
2017-04-19T06:50:03.958Z,46.93
2017-04-19T06:51:05.136Z,46.80
2017-04-19T06:52:01.628Z,47.37
2017-04-19T06:52:46.423Z,47.56
2017-04-19T06:53:46.347Z,47.61
2017-04-19T06:54:51.948Z,47.65
2017-04-19T06:55:56.955Z,47.61
2017-04-19T06:56:48.979Z,47.66
2017-04-19T06:57:49.650Z,47.67
2017-04-19T06:58:49.882Z,47.70
2017-04-19T06:59:55.198Z,47.70
2017-04-19T07:00:50.831Z,47.69
2017-04-19T07:01:46.357Z,47.74
2017-04-19T07:03:02.904Z,47.75
2017-04-19T07:03:48.834Z,47.76
2017-04-19T07:04:51.995Z,47.74
2017-04-19T07:05:55.637Z,47.76
2017-04-19T07:06:55.201Z,47.77
2017-04-19T07:07:59.148Z,47.79
2017-04-19T07:08:48.701Z,47.81
2017-04-19T07:09:45.575Z,47.81
2017-04-19T07:10:56.948Z,47.81
2017-04-19T07:11:49.587Z,47.83
2017-04-19T07:13:02.999Z,47.84
2017-04-19T07:13:57.246Z,47.83
2017-04-19T07:15:02.821Z,47.86
2017-04-19T07:15:47.488Z,47.88
2017-04-19T07:16:50.740Z,47.88
2017-04-19T07:17:54.734Z,47.89
2017-04-19T07:18:57.417Z,47.90
2017-04-19T07:19:55.193Z,47.89
2017-04-19T07:21:14.819Z,47.91
2017-04-19T07:21:58.480Z,47.93
2017-04-19T07:23:06.901Z,47.96
2017-04-19T07:23:55.353Z,47.95
2017-04-19T07:24:55.194Z,47.96
2017-04-19T07:25:45.907Z,47.97
2017-04-19T07:27:02.898Z,48.00
2017-04-19T07:27:46.639Z,47.99
2017-04-19T07:28:56.046Z,47.99
2017-04-19T07:29:46.343Z,48.00
2017-04-19T07:30:49.441Z,47.99
2017-04-19T07:31:58.959Z,48.05
2017-04-19T07:32:44.743Z,48.03
2017-04-19T07:33:46.135Z,48.03
2017-04-19T07:34:47.682Z,48.04
2017-04-19T07:35:58.470Z,48.03
2017-04-19T07:36:59.737Z,48.05
2017-04-19T07:37:56.379Z,48.04
2017-04-19T07:39:00.543Z,48.07
2017-04-19T07:39:58.618Z,48.07
2017-04-19T07:40:50.434Z,48.08
2017-04-19T07:41:44.191Z,48.12
2017-04-19T07:42:49.409Z,48.14
2017-04-19T07:43:59.903Z,48.14
2017-04-19T07:44:58.521Z,48.14
2017-04-19T07:45:59.758Z,48.17
2017-04-19T07:47:08.888Z,48.18
2017-04-19T07:47:59.007Z,48.20
2017-04-19T07:48:52.266Z,48.18
2017-04-19T07:49:46.129Z,48.17
2017-04-19T07:50:49.510Z,48.18
2017-04-19T07:51:53.568Z,48.19
2017-04-19T07:52:50.145Z,48.17
2017-04-19T07:53:53.465Z,48.21
2017-04-19T07:55:07.015Z,48.17
2017-04-19T07:55:51.091Z,48.19
2017-04-19T07:56:52.041Z,48.24
2017-04-19T07:57:45.967Z,48.27
2017-04-19T07:59:06.279Z,48.26
2017-04-19T08:00:17.391Z,48.25
2017-04-19T08:00:58.065Z,48.25
2017-04-19T08:02:00.243Z,48.30
2017-04-19T08:02:54.520Z,48.31
2017-04-19T08:03:46.470Z,48.32
2017-04-19T08:04:55.097Z,48.35
2017-04-19T08:05:49.362Z,48.36
2017-04-19T08:06:57.129Z,48.35
2017-04-19T08:07:55.999Z,48.35
2017-04-19T08:08:52.852Z,48.38
2017-04-19T08:09:56.349Z,48.37
2017-04-19T08:10:46.016Z,48.39
2017-04-19T08:11:50.905Z,48.41
2017-04-19T08:12:54.940Z,48.42
2017-04-19T08:13:45.705Z,48.43
2017-04-19T08:15:05.411Z,48.43
2017-04-19T08:15:49.608Z,48.45
2017-04-19T08:16:54.280Z,48.46
2017-04-19T08:17:50.109Z,48.49
2017-04-19T08:18:52.035Z,48.51
2017-04-19T08:19:52.722Z,48.55
2017-04-19T08:21:03.288Z,48.55
2017-04-19T08:21:57.178Z,48.53
2017-04-19T08:22:48.517Z,48.54
2017-04-19T08:23:51.214Z,48.54
2017-04-19T08:24:45.721Z,48.56
2017-04-19T08:25:50.515Z,48.55
2017-04-19T08:26:55.964Z,48.57
2017-04-19T08:27:45.917Z,48.58
2017-04-19T08:28:49.773Z,48.56
2017-04-19T08:29:50.600Z,48.60
2017-04-19T08:30:58.389Z,48.58
2017-04-19T08:31:53.229Z,48.58
2017-04-19T08:32:45.599Z,48.62
2017-04-19T08:33:46.411Z,48.61
2017-04-19T08:35:24.386Z,48.58
2017-04-19T08:35:53.148Z,48.63
2017-04-19T08:37:01.146Z,48.61
2017-04-19T08:37:45.986Z,48.62
2017-04-19T08:38:48.814Z,48.60
2017-04-19T08:39:56.398Z,48.58
2017-04-19T08:40:46.260Z,48.60
2017-04-19T08:41:51.350Z,48.63
2017-04-19T08:42:47.764Z,48.62
2017-04-19T08:44:17.414Z,48.64
2017-04-19T08:44:56.138Z,48.63
2017-04-19T08:45:57.214Z,48.64
2017-04-19T08:47:05.086Z,48.64
2017-04-19T08:47:49.212Z,48.67
2017-04-19T08:48:54.392Z,48.64
2017-04-19T08:49:49.074Z,48.67
2017-04-19T08:50:55.228Z,48.68
2017-04-19T08:52:05.481Z,48.69
2017-04-19T08:52:58.851Z,48.65
2017-04-19T08:53:54.170Z,48.68
2017-04-19T08:54:51.084Z,48.66
2017-04-19T08:55:51.590Z,48.65
2017-04-19T08:56:46.563Z,48.70
2017-04-19T08:57:40.817Z,48.67
2017-04-19T08:58:59.854Z,48.68
2017-04-19T08:59:52.078Z,48.69
2017-04-19T09:00:54.499Z,48.69
2017-04-19T09:02:05.566Z,48.70
2017-04-19T09:02:49.195Z,48.68
2017-04-19T09:03:59.299Z,48.68
2017-04-19T09:04:54.539Z,48.70
2017-04-19T09:05:56.329Z,48.66
2017-04-19T09:06:52.720Z,48.67
2017-04-19T09:07:46.361Z,48.66
2017-04-19T09:08:50.861Z,48.65
2017-04-19T09:09:46.786Z,48.67
2017-04-19T09:10:53.470Z,48.64
2017-04-19T09:11:57.434Z,48.65
2017-04-19T09:12:57.268Z,48.67
2017-04-19T09:13:51.202Z,48.65
2017-04-19T09:14:55.198Z,48.68
2017-04-19T09:15:55.649Z,48.71
2017-04-19T09:17:07.026Z,48.73
2017-04-19T09:17:46.878Z,48.70
2017-04-19T09:18:51.786Z,48.72
2017-04-19T09:19:51.572Z,48.72
2017-04-19T09:21:00.024Z,48.73
2017-04-19T09:22:06.607Z,48.76
2017-04-19T09:22:46.266Z,48.73
2017-04-19T09:23:50.216Z,48.75
2017-04-19T09:24:49.385Z,48.74
2017-04-19T09:25:45.086Z,48.74
2017-04-19T09:26:50.015Z,48.74
2017-04-19T09:27:44.842Z,48.75
2017-04-19T09:29:00.847Z,48.74
2017-04-19T09:29:49.837Z,48.76
2017-04-19T09:30:55.145Z,48.74
2017-04-19T09:31:55.737Z,48.74
2017-04-19T09:32:51.681Z,48.76
2017-04-19T09:33:55.953Z,48.76
2017-04-19T09:34:49.712Z,48.76
2017-04-19T09:35:55.259Z,48.75
2017-04-19T09:36:57.181Z,48.75
2017-04-19T09:37:55.982Z,48.75
2017-04-19T09:38:59.263Z,48.76
2017-04-19T09:41:00.459Z,48.77
2017-04-19T09:41:54.644Z,48.73
2017-04-19T09:43:00.176Z,48.70
2017-04-19T09:43:59.822Z,48.69
2017-04-19T09:44:51.706Z,48.66
2017-04-19T09:45:44.939Z,48.56
2017-04-19T09:47:20.058Z,48.61
2017-04-19T09:47:57.369Z,48.62
2017-04-19T09:48:57.471Z,48.60
2017-04-19T09:49:53.094Z,48.62
2017-04-19T09:51:15.101Z,48.62
2017-04-19T09:51:54.498Z,48.62
2017-04-19T09:52:46.710Z,48.63
2017-04-19T09:53:40.614Z,48.64
2017-04-19T09:54:55.396Z,48.66
2017-04-19T09:55:59.350Z,48.69
2017-04-19T09:56:50.000Z,48.68
2017-04-19T09:57:49.244Z,48.67
2017-04-19T09:58:52.289Z,48.74
2017-04-19T10:00:19.511Z,48.71
2017-04-19T10:00:48.944Z,48.72
2017-04-19T10:02:06.387Z,48.75
2017-04-19T10:02:51.152Z,48.73
2017-04-19T10:03:46.008Z,48.75
2017-04-19T10:05:00.715Z,48.75
2017-04-19T10:06:00.779Z,48.78
2017-04-19T10:06:49.686Z,48.77
2017-04-19T10:07:49.677Z,48.77
2017-04-19T10:08:55.384Z,48.78
2017-04-19T10:10:00.003Z,48.78
2017-04-19T10:11:17.233Z,48.77
2017-04-19T10:11:51.010Z,48.76
2017-04-19T10:12:39.849Z,48.75
2017-04-19T10:13:51.207Z,48.74
2017-04-19T10:14:51.077Z,48.69
2017-04-19T10:15:59.222Z,48.67
2017-04-19T10:17:00.140Z,48.67
2017-04-19T10:17:49.706Z,48.65
2017-04-19T10:19:01.006Z,48.63
2017-04-19T10:19:55.603Z,48.60
2017-04-19T10:20:46.582Z,48.61
2017-04-19T10:21:53.453Z,48.59
2017-04-19T10:22:50.812Z,48.61
2017-04-19T10:23:46.618Z,48.62
2017-04-19T10:24:51.243Z,48.62
2017-04-19T10:25:50.013Z,48.64
2017-04-19T10:26:49.122Z,48.65
2017-04-19T10:27:51.518Z,48.68
2017-04-19T10:28:54.350Z,48.67
2017-04-19T10:30:03.650Z,48.68
2017-04-19T10:30:52.919Z,48.69
2017-04-19T10:32:46.068Z,48.73
2017-04-19T10:34:01.161Z,48.74
2017-04-19T10:34:45.814Z,48.73
2017-04-19T10:36:07.338Z,47.96
2017-04-19T10:36:52.065Z,48.57
2017-04-19T10:37:50.637Z,48.69
2017-04-19T10:38:49.775Z,48.74
2017-04-19T10:39:55.505Z,48.78
2017-04-19T10:41:04.356Z,48.79
2017-04-19T10:41:54.146Z,48.83
2017-04-19T10:42:45.638Z,48.81
2017-04-19T10:43:46.457Z,48.80
2017-04-19T10:44:55.997Z,48.79
2017-04-19T10:45:50.424Z,48.82
2017-04-19T10:46:46.490Z,48.83
2017-04-19T10:47:56.438Z,48.83
2017-04-19T10:48:55.913Z,48.82
2017-04-19T10:49:56.425Z,48.80
2017-04-19T10:50:46.338Z,48.80
2017-04-19T10:52:00.105Z,48.81
2017-04-19T10:52:55.505Z,48.78
2017-04-19T10:53:50.617Z,48.80
2017-04-19T10:54:55.928Z,48.79
2017-04-19T10:55:50.699Z,48.77
2017-04-19T10:56:46.024Z,48.75
2017-04-19T10:57:50.584Z,48.76
2017-04-19T10:58:46.476Z,48.75
2017-04-19T10:59:55.371Z,48.76
2017-04-19T11:00:55.505Z,48.74
2017-04-19T11:01:46.372Z,48.73
2017-04-19T11:02:45.845Z,48.73
2017-04-19T11:03:50.512Z,48.74
2017-04-19T11:04:46.339Z,48.78
2017-04-19T11:05:55.770Z,48.78
2017-04-19T11:06:55.054Z,48.80
2017-04-19T11:07:45.737Z,48.79
2017-04-19T11:08:41.095Z,48.80
2017-04-19T11:09:49.736Z,48.78
2017-04-19T11:10:46.692Z,48.79
2017-04-19T11:11:49.824Z,48.77
2017-04-19T11:12:53.304Z,48.81
2017-04-19T11:13:49.563Z,48.81
2017-04-19T11:14:45.087Z,48.80
2017-04-19T11:15:53.891Z,48.81
2017-04-19T11:16:46.806Z,49.16
2017-04-19T11:17:45.966Z,48.88
2017-04-19T11:18:55.789Z,48.80
2017-04-19T11:19:51.335Z,48.76
2017-04-19T11:20:55.433Z,48.77
2017-04-19T11:21:55.288Z,48.75
2017-04-19T11:23:00.749Z,48.72
2017-04-19T11:23:50.675Z,48.70
2017-04-19T11:24:54.925Z,48.69
2017-04-19T11:26:14.852Z,48.67
2017-04-19T11:27:03.468Z,48.68
2017-04-19T11:27:58.827Z,48.66
2017-04-19T11:28:53.845Z,48.67
2017-04-19T11:30:35.801Z,48.67
2017-04-19T11:30:53.079Z,48.65
2017-04-19T11:31:59.680Z,48.64
2017-04-19T11:32:55.926Z,48.63
2017-04-19T11:34:03.833Z,48.62
2017-04-19T11:34:54.726Z,48.62
2017-04-19T11:36:02.862Z,48.61
2017-04-19T11:36:53.008Z,48.60
2017-04-19T11:37:54.906Z,48.59
2017-04-19T11:38:53.186Z,48.60
2017-04-19T11:39:55.285Z,48.62
2017-04-19T11:40:46.014Z,48.66
2017-04-19T11:41:54.731Z,48.70
2017-04-19T11:42:50.684Z,48.72
2017-04-19T11:43:46.550Z,48.74
2017-04-19T11:44:55.932Z,48.79
2017-04-19T11:45:50.433Z,48.81
2017-04-19T11:46:48.618Z,48.83
2017-04-19T11:47:49.369Z,48.82
2017-04-19T11:48:55.784Z,48.85
2017-04-19T11:49:46.414Z,48.85
2017-04-19T11:50:53.332Z,48.83
2017-04-19T11:51:51.034Z,48.84
2017-04-19T11:52:48.751Z,48.83
2017-04-19T11:53:55.939Z,48.80
2017-04-19T11:54:55.334Z,48.83
2017-04-19T11:55:57.162Z,48.81
2017-04-19T11:56:52.073Z,48.79
2017-04-19T11:57:58.896Z,48.80
2017-04-19T11:58:50.234Z,48.76
2017-04-19T11:59:55.219Z,48.75
2017-04-19T12:00:55.755Z,48.75
2017-04-19T12:01:46.661Z,48.72
2017-04-19T12:02:46.060Z,48.74
2017-04-19T12:03:16.869Z,48.66
2017-04-19T12:04:45.494Z,48.68
2017-04-19T12:05:40.250Z,48.67
2017-04-19T12:06:55.311Z,48.68
2017-04-19T12:07:49.243Z,48.72
2017-04-19T12:08:45.889Z,48.72
2017-04-19T12:09:54.253Z,48.76
2017-04-19T12:10:45.496Z,48.80
2017-04-19T12:11:45.680Z,48.84
2017-04-19T12:12:44.928Z,48.85
2017-04-19T12:13:50.256Z,48.84
2017-04-19T12:14:54.533Z,48.86
2017-04-19T12:15:45.845Z,48.84
2017-04-19T12:16:50.388Z,48.86
2017-04-19T12:17:46.095Z,48.86
2017-04-19T12:18:51.138Z,48.85
2017-04-19T12:19:44.354Z,48.84
2017-04-19T12:20:59.467Z,48.81
2017-04-19T12:22:00.036Z,48.79
2017-04-19T12:22:56.625Z,48.77
2017-04-19T12:23:45.790Z,48.75
2017-04-19T12:25:01.829Z,48.74
2017-04-19T12:26:00.133Z,48.72
2017-04-19T12:26:54.458Z,48.72
2017-04-19T12:27:47.189Z,48.72
2017-04-19T12:28:49.596Z,48.72
2017-04-19T12:30:00.455Z,48.73
2017-04-19T12:30:55.575Z,48.74
2017-04-19T12:31:56.133Z,48.77
2017-04-19T12:32:52.947Z,48.81
2017-04-19T12:33:55.079Z,48.82
2017-04-19T12:34:56.380Z,48.84
2017-04-19T12:35:57.741Z,48.85
2017-04-19T12:36:56.298Z,48.87
2017-04-19T12:37:59.947Z,48.88
2017-04-19T12:38:56.655Z,48.89
2017-04-19T12:39:45.798Z,48.90
2017-04-19T12:40:50.981Z,48.90
2017-04-19T12:41:59.954Z,48.91
2017-04-19T12:42:53.427Z,48.90
2017-04-19T12:44:06.242Z,48.92
2017-04-19T12:44:55.695Z,48.93
2017-04-19T12:45:55.976Z,48.92
2017-04-19T12:46:55.376Z,48.92
2017-04-19T12:47:45.786Z,48.95
2017-04-19T12:48:55.579Z,48.93
2017-04-19T12:49:51.653Z,48.95
2017-04-19T12:50:50.596Z,48.94
2017-04-19T12:51:46.345Z,48.95
2017-04-19T12:52:56.010Z,48.92
2017-04-19T12:53:51.348Z,48.92
2017-04-19T12:55:04.721Z,48.89
2017-04-19T12:55:54.705Z,48.89
2017-04-19T12:57:07.190Z,48.87
2017-04-19T12:57:51.908Z,48.85
2017-04-19T12:58:55.962Z,48.84